Latest Weather Observations for Murrurundi Gap

IDN60801

Issued at 9:35 am EST Friday 19 September 2014 (issued every 30 minutes, with the page automatically refreshed every 10 minutes)

About weather observations | Map of weather stations | Latest weather observations for NSW | Other Formats
Station Details ID: 061392 Name: MURRURUNDI GAP AWS Lat: -31.74 Lon: 150.79 Height: 729.4 m
Data from the previous 72 hours. | See also: Recent months for locations in New South Wales
Date/Time
EST
Temp
°C
App
Temp
°C
Dew
Point
Rel
Hum
%
Delta-T
°C
Wind Press
QNH
hPa
Press
MSL
hPa
Rain
since 9 am
mm
Dir
 
Spd
km/h
Gust
km/h
Spd
kts
Gust
kts
19/09:30am 9.0 7.1 0.5 55 3.6 WSW 0 0 0 0 1022.8 1021.6 0.0
19/09:00am 9.0 5.9 1.2 58 3.3 SSE 7 11 4 6 1022.8 1021.6 0.0
19/08:30am 8.2 5.2 0.9 60 3.1 E 6 7 3 4 1022.8 1021.6 0.0
19/08:00am 7.6 4.5 1.2 64 2.7 ESE 7 11 4 6 1022.6 1021.3 0.0
19/07:30am 7.5 4.1 2.0 68 2.4 ESE 9 11 5 6 1022.3 1021.0 0.0
19/07:00am 7.7 4.9 1.8 66 2.5 ESE 6 9 3 5 1022.1 1020.8 0.0
19/06:30am 6.2 2.7 1.5 72 2.0 ESE 9 19 5 10 1021.7 1020.4 0.0
19/06:00am 4.6 0.6 0.6 75 1.6 SE 11 13 6 7 1021.5 1020.2 0.0
19/05:30am 5.1 1.5 0.9 74 1.7 ESE 9 11 5 6 1021.3 1020.0 0.0
19/05:00am 5.2 1.7 1.0 74 1.7 SE 9 13 5 7 1021.3 1020.0 0.0
19/04:30am 4.8 0.8 0.4 73 1.8 SSE 11 13 6 7 1020.9 1019.6 0.0
19/04:00am 5.1 1.1 0.3 71 1.9 SE 11 13 6 7 1020.8 1019.5 0.0
19/03:30am 5.2 0.7 0.0 69 2.1 SE 13 15 7 8 1020.7 1019.4 0.0
19/03:00am 5.2 0.3 -0.4 67 2.2 SE 15 17 8 9 1020.7 1019.4 0.0
19/02:30am 5.4 -0.2 -0.2 67 2.2 SSE 19 20 10 11 1020.7 1019.4 0.0
19/02:00am 5.4 0.1 -0.6 65 2.4 SSE 17 20 9 11 1020.9 1019.6 0.0
19/01:30am 5.9 0.9 -1.3 60 2.8 SE 15 20 8 11 1021.1 1019.8 0.0
19/01:00am 6.8 1.8 -1.1 57 3.1 SE 15 19 8 10 1021.3 1020.0 0.0
19/12:30am 6.7 2.1 -1.0 58 3.1 SE 13 17 7 9 1021.3 1020.0 0.0
19/12:00am 7.0 2.0 -1.2 56 3.2 ESE 15 17 8 9 1021.7 1020.4 0.0
 
Date/Time
EST
Temp
°C
App
Temp
°C
Dew
Point
Rel
Hum
%
Delta-T
°C
Wind Press
QNH
hPa
Press
MSL
hPa
Rain
since 9 am
mm
Dir
 
Spd
km/h
Gust
km/h
Spd
kts
Gust
kts
18/11:30pm 7.6 2.2 -1.1 54 3.5 SSE 17 22 9 12 1021.9 1020.6 0.0
18/11:00pm 7.9 3.9 -2.4 48 4.0 SE 9 17 5 9 1022.0 1020.7 0.0
18/10:30pm 7.9 2.8 -2.1 49 3.9 SE 15 20 8 11 1021.8 1020.5 0.0
18/10:00pm 9.0 3.9 -2.3 45 4.4 SE 15 20 8 11 1021.9 1020.6 0.0
18/09:30pm 9.3 4.6 -2.0 45 4.5 NNW 13 17 7 9 1021.5 1020.2 0.0
18/09:00pm 9.5 4.3 -2.4 43 4.7 WNW 15 24 8 13 1021.2 1019.9 0.0
18/08:30pm 10.3 5.4 -3.4 38 5.3 W 13 19 7 10 1021.1 1019.8 0.0
18/08:00pm 10.8 5.1 -4.0 35 5.7 W 17 22 9 12 1021.0 1019.7 0.0
18/07:30pm 11.0 5.2 -4.2 34 5.9 W 17 20 9 11 1020.9 1019.6 0.0
18/07:00pm 11.7 7.3 -5.7 29 6.5 NW 9 17 5 9 1020.6 1019.3 0.0
18/06:30pm 12.3 8.0 -5.2 29 6.7 W 9 15 5 8 1020.4 1019.0 0.0
18/06:00pm 12.5 7.5 -4.1 31 6.5 NW 13 19 7 10 1019.9 1018.6 0.0
18/05:30pm 13.9 7.7 -4.8 27 7.3 WNW 19 24 10 13 1019.5 1018.2 0.0
18/05:00pm 14.6 8.4 -5.2 25 7.8 WNW 19 24 10 13 1019.2 1017.8 0.0
18/04:30pm 15.3 9.3 -6.3 22 8.3 WNW 17 26 9 14 1018.8 1017.4 0.0
18/04:00pm 15.4 8.8 -6.8 21 8.5 NW 20 32 11 17 1018.5 1017.2 0.0
18/03:30pm 16.0 9.6 -5.1 23 8.4 NW 20 32 11 17 1018.4 1017.1 0.0
18/03:00pm 16.1 9.3 -5.0 23 8.4 WNW 22 33 12 18 1018.2 1016.9 0.0
18/02:30pm 15.9 8.6 -5.8 22 8.5 NW 24 41 13 22 1018.3 1017.0 0.0
18/02:00pm 15.9 8.5 -7.0 20 8.7 W 24 35 13 19 1018.4 1017.1 0.0
18/01:30pm 15.6 6.6 -7.9 19 8.8 NW 32 41 17 22 1018.5 1017.2 0.0
18/01:00pm 15.1 7.3 -7.7 20 8.5 NW 26 37 14 20 1018.9 1017.5 0.0
18/12:30pm 15.4 8.3 -4.5 25 8.0 NW 24 32 13 17 1019.2 1017.8 0.0
18/12:00pm 14.6 7.1 -4.2 27 7.5 WNW 26 39 14 21 1019.6 1018.3 0.0
18/11:30am 13.8 6.3 -4.4 28 7.2 WNW 26 32 14 17 1019.9 1018.6 0.0
18/11:00am 13.3 6.3 -3.9 30 6.8 NW 24 32 13 17 1020.0 1018.7 0.0
18/10:30am 12.3 5.3 -3.5 33 6.3 NW 24 33 13 18 1020.4 1019.0 0.0
18/10:00am 12.3 5.1 -2.0 37 5.9 NW 26 33 14 18 1020.6 1019.3 0.0
18/09:30am 11.7 5.0 -0.8 42 5.2 NW 24 33 13 18 1020.7 1019.4 0.0
18/09:00am 10.5 3.8 -1.2 44 4.8 WNW 24 30 13 16 1021.1 1019.8 0.0
18/08:30am 9.7 1.5 -1.3 46 4.5 WNW 32 41 17 22 1020.7 1019.4 0.0
18/08:00am 9.3 3.3 1.0 56 3.5 NNW 22 30 12 16 1020.9 1019.6 0.0
18/07:30am 8.4 3.2 0.1 56 3.4 NNW 17 20 9 11 1020.7 1019.4 0.0
18/07:00am 8.1 4.4 -0.1 56 3.4 NW 9 13 5 7 1020.6 1019.3 0.0
18/06:30am 7.5 4.1 -0.5 57 3.2 NNW 7 11 4 6 1020.2 1018.8 0.0
18/06:00am 7.1 3.7 -0.8 57 3.2 W 7 9 4 5 1020.0 1018.7 0.0
18/05:30am 7.2 2.6 -0.7 57 3.2 W 13 22 7 12 1019.6 1018.3 0.0
18/05:00am 7.4 2.1 -0.8 56 3.3 W 17 26 9 14 1019.3 1018.0 0.0
18/04:30am 7.3 3.5 -0.6 57 3.2 WNW 9 15 5 8 1018.9 1017.5 0.0
18/04:00am 8.4 3.1 -0.6 53 3.7 W 17 33 9 18 1018.4 1017.1 0.0
18/03:30am 8.5 3.2 -0.5 53 3.7 W 17 26 9 14 1018.3 1017.0 0.0
18/03:00am 8.7 3.1 -0.3 53 3.7 W 19 30 10 16 1018.2 1016.9 0.0
18/02:30am 8.9 3.7 0.1 54 3.7 W 17 22 9 12 1018.2 1016.9 0.0
18/02:00am 9.1 3.9 -0.2 52 3.9 W 17 26 9 14 1018.1 1016.8 0.0
18/01:30am 9.8 3.6 -0.1 50 4.1 WSW 22 32 12 17 1018.2 1016.9 0.0
18/01:00am 9.7 4.9 0.1 51 4.0 WSW 15 26 8 14 1018.2 1016.9 0.0
18/12:30am 9.8 5.7 -0.1 50 4.1 WNW 11 19 6 10 1018.2 1016.9 0.0
18/12:00am 9.8 6.5 0.2 51 4.0 WNW 7 15 4 8 1018.3 1017.0 0.0
 
Date/Time
EST
Temp
°C
App
Temp
°C
Dew
Point
Rel
Hum
%
Delta-T
°C
Wind Press
QNH
hPa
Press
MSL
hPa
Rain
since 9 am
mm
Dir
 
Spd
km/h
Gust
km/h
Spd
kts
Gust
kts
17/11:30pm 10.4 6.6 -0.4 47 4.5 WNW 9 15 5 8 1018.2 1016.9 0.0
17/11:00pm 10.8 7.5 -0.9 44 4.8 WNW 6 11 3 6 1018.3 1017.0 0.0
17/10:30pm 11.2 7.4 -0.9 43 5.0 NW 9 11 5 6 1018.1 1016.8 0.0
17/10:00pm 11.2 7.4 -0.9 43 5.0 NNW 9 13 5 7 1017.9 1016.5 0.0
17/09:30pm 11.4 7.6 -0.7 43 5.1 NNW 9 13 5 7 1017.8 1016.4 0.0
17/09:00pm 11.3 7.5 -0.8 43 5.1 NNW 9 11 5 6 1017.6 1016.2 0.0
17/08:30pm 11.6 8.2 -0.9 42 5.2 NW 7 11 4 6 1017.4 1016.0 0.0
17/08:00pm 11.6 8.3 -0.2 44 5.0 NW 7 11 4 6 1017.3 1015.9 0.0
17/07:30pm 12.4 8.0 0.2 43 5.3 WNW 13 20 7 11 1017.0 1015.7 0.0
17/07:00pm 12.8 7.3 0.5 43 5.4 W 19 32 10 17 1016.6 1015.2 0.0
17/06:30pm 13.1 8.0 0.5 42 5.5 WNW 17 24 9 13 1016.2 1014.8 0.0
17/06:00pm 13.3 8.0 -0.3 39 5.9 WNW 17 26 9 14 1015.6 1014.3 0.0
17/05:30pm 13.8 8.2 0.1 39 6.0 NW 19 26 10 14 1015.1 1013.7 0.0
17/05:00pm 13.9 8.7 0.2 39 6.0 WNW 17 24 9 13 1015.0 1013.6 0.0
17/04:30pm 14.2 8.5 0.5 39 6.1 WNW 20 26 11 14 1014.6 1013.2 0.0
17/04:00pm 14.1 7.3 0.7 40 5.9 W 26 39 14 21 1014.3 1012.8 0.0
17/03:30pm 14.7 7.4 0.2 37 6.4 WNW 28 39 15 21 1013.8 1012.4 0.0
17/03:00pm 14.8 8.9 1.7 41 6.0 W 22 32 12 17 1013.9 1012.5 0.0
17/02:30pm 15.1 7.5 0.5 37 6.5 NW 30 43 16 23 1013.5 1012.1 0.0
17/02:00pm 14.6 7.5 1.5 41 5.9 NW 28 37 15 20 1013.7 1012.3 0.0
17/01:30pm 14.6 6.7 1.2 40 6.0 NW 32 43 17 23 1013.8 1012.4 0.0
17/01:00pm 14.2 6.7 1.5 42 5.7 NNW 30 43 16 23 1014.0 1012.6 0.0
17/12:35pm 14.9 5.8 1.8 41 6.0 NNW 39 46 21 25 1014.0 1012.6 0.0
17/12:30pm 13.9 6.1 1.9 44 5.5 WNW 32 44 17 24 1014.3 1012.8 0.0
17/12:00pm 14.7 6.6 3.2 46 5.4 NW 35 46 19 25 1014.1 1012.7 0.0
17/11:30am 14.9 7.8 3.4 46 5.4 NW 30 41 16 22 1014.7 1013.3 0.0
17/11:00am 13.8 7.6 2.4 46 5.2 WNW 24 33 13 18 1015.1 1013.7 0.0
17/10:30am 13.0 6.4 2.3 48 4.9 NW 26 35 14 19 1015.3 1013.9 0.0
17/10:00am 12.2 7.1 2.9 53 4.3 W 19 32 10 17 1015.6 1014.3 0.0
17/09:30am 12.0 8.8 5.2 63 3.3 NW 11 22 6 12 1016.0 1014.6 0.0
17/09:00am 11.6 7.1 4.1 60 3.5 NNW 17 22 9 12 1016.2 1014.8 0.0
17/08:30am 11.0 7.1 5.5 69 2.6 NNW 15 22 8 12 1016.4 1015.0 0.0
17/08:00am 10.3 6.4 5.5 72 2.3 NNW 15 17 8 9 1016.3 1014.9 0.0
17/07:30am 9.8 6.3 5.6 75 2.0 NW 13 17 7 9 1016.2 1014.8 0.0
17/07:00am 8.8 5.2 5.0 77 1.8 NW 13 15 7 8 1015.8 1014.4 0.0
17/06:30am 8.5 5.6 4.9 78 1.7 NW 9 11 5 6 1015.2 1013.8 0.0
17/06:00am 8.1 5.6 4.9 80 1.5 NW 7 13 4 7 1015.1 1013.7 0.0
17/05:30am 8.5 5.3 4.9 78 1.7 NNW 11 15 6 8 1015.0 1013.6 0.0
17/05:00am 8.4 4.8 5.0 79 1.6 NNW 13 15 7 8 1014.7 1013.3 0.0
17/04:30am 8.3 4.3 4.9 79 1.6 NNW 15 17 8 9 1014.4 1012.9 0.0
17/04:00am 8.6 6.3 4.8 77 1.8 N 6 9 3 5 1014.3 1012.8 0.0
17/03:30am 8.9 6.5 5.1 77 1.8 NNW 7 11 4 6 1014.5 1013.1 0.0
17/03:00am 9.0 5.8 5.0 76 1.9 N 11 17 6 9 1014.6 1013.2 0.0
17/02:30am 9.0 5.4 5.2 77 1.8 N 13 20 7 11 1014.9 1013.5 0.0
17/02:00am 8.9 6.0 4.9 76 1.9 NNW 9 15 5 8 1015.1 1013.7 0.0
17/01:30am 8.8 5.5 4.4 74 2.0 NNW 11 15 6 8 1015.3 1013.9 0.0
17/01:00am 9.4 6.5 4.6 72 2.2 NNW 9 15 5 8 1015.4 1014.0 0.0
17/12:30am 9.1 5.3 4.1 71 2.3 NW 13 17 7 9 1015.3 1013.9 0.0
17/12:00am 9.6 5.1 4.2 69 2.5 NNW 17 22 9 12 1015.2 1013.8 0.0
 
Date/Time
EST
Temp
°C
App
Temp
°C
Dew
Point
Rel
Hum
%
Delta-T
°C
Wind Press
QNH
hPa
Press
MSL
hPa
Rain
since 9 am
mm
Dir
 
Spd
km/h
Gust
km/h
Spd
kts
Gust
kts
16/11:30pm 9.9 5.8 4.3 68 2.6 NNW 15 19 8 10 1015.0 1013.6 0.0
16/11:00pm 9.9 6.1 4.1 67 2.7 NNW 13 17 7 9 1015.0 1013.6 0.0
16/10:30pm 10.7 6.6 4.2 64 3.0 NNW 15 19 8 10 1014.8 1013.4 0.0
16/10:00pm 11.5 6.5 4.5 62 3.3 NNW 20 24 11 13 1014.5 1013.1 0.0
16/09:30pm 11.8 6.0 4.3 60 3.5 NNW 24 32 13 17 1014.1 1012.7 0.0
16/09:00pm 11.9 5.3 4.2 59 3.6 NW 28 37 15 20 1014.0 1012.6 0.0
16/08:30pm 12.2 4.7 4.2 58 3.8 NW 33 41 18 22 1013.6 1012.2 0.0
16/08:00pm 12.6 4.7 4.1 56 4.0 NW 35 41 19 22 1013.2 1011.7 0.0
16/07:30pm 13.4 5.4 3.8 52 4.5 NW 35 44 19 24 1013.1 1011.6 0.0
16/07:10pm 13.8 5.8 3.6 50 4.8 NW 35 54 19 29 1012.6 1011.2 0.0
16/07:00pm 14.1 6.1 3.6 49 5.0 NW 35 46 19 25 1012.4 1011.0 0.0
16/06:40pm 14.6 7.0 3.7 48 5.2 NW 33 52 18 28 1012.2 1010.8 0.0
16/06:30pm 14.6 6.6 3.7 48 5.2 NW 35 46 19 25 1012.2 1010.8 0.0
16/06:00pm 15.2 6.7 3.4 45 5.6 NW 37 50 20 27 1011.7 1010.2 0.0
16/05:30pm 16.3 6.5 2.3 39 6.5 NW 43 52 23 28 1010.9 1009.5 0.0
16/05:11pm 16.8 6.9 1.7 36 7.0 NW 43 63 23 34 1010.5 1009.0 0.0
16/05:00pm 16.8 6.8 2.4 38 6.8 NW 44 59 24 32 1010.4 1008.9 0.0
16/04:41pm 17.8 8.8 2.2 35 7.4 WNW 39 59 21 32 1010.2 1008.7 0.0
16/04:30pm 17.9 7.0 1.4 33 7.7 NW 48 63 26 34 1010.1 1008.6 0.0
16/04:04pm 18.4 7.9 1.4 32 7.9 NW 46 65 25 35 1009.7 1008.3 0.0
16/04:00pm 18.6 7.7 1.6 32 8.0 NW 48 65 26 35 1009.7 1008.3 0.0
16/03:44pm 18.9 7.3 1.4 31 8.2 NW 52 70 28 38 1009.5 1008.0 0.0
16/03:30pm 18.9 6.7 0.5 29 8.5 NW 54 67 29 36 1009.0 1007.5 0.0
16/03:03pm 19.4 6.3 0.4 28 8.8 NW 59 78 32 42 1008.6 1007.1 0.0
16/03:00pm 19.3 6.1 -0.1 27 8.9 NW 59 74 32 40 1008.3 1006.8 0.0
16/02:34pm 20.5 9.2 0.9 27 9.2 NW 50 69 27 37 1009.1 1007.6 0.0
16/02:30pm 20.1 7.9 0.0 26 9.2 NW 54 70 29 38 1008.9 1007.4 0.0
16/02:03pm 20.4 8.2 0.3 26 9.3 NW 54 72 29 39 1008.3 1006.8 0.0
16/02:00pm 20.2 7.5 0.6 27 9.2 NW 57 74 31 40 1008.2 1006.7 0.0
16/01:30pm 20.1 7.4 1.0 28 9.0 NW 57 80 31 43 1008.8 1007.3 0.0
16/01:00pm 19.8 6.0 1.3 29 8.7 NNW 63 82 34 44 1008.2 1006.7 0.0
16/12:30pm 20.1 6.5 -0.5 25 9.4 NW 61 80 33 43 1008.7 1007.2 0.0
16/12:00pm 19.8 7.3 2.2 31 8.5 NNW 57 76 31 41 1009.0 1007.5 0.0
16/11:37am 19.5 6.8 3.2 34 7.9 NW 59 80 32 43 1009.4 1007.9 0.0
16/11:30am 19.1 6.8 2.9 34 7.8 NW 57 74 31 40 1009.7 1008.3 0.0
16/11:00am 19.3 7.0 3.1 34 7.9 NW 57 76 31 41 1010.8 1009.3 0.0
16/10:31am 19.0 7.7 3.2 35 7.7 NW 52 72 28 39 1010.3 1008.8 0.0
16/10:30am 19.2 8.3 3.4 35 7.7 NW 50 67 27 36 1010.6 1009.1 0.0
16/10:00am 17.8 9.0 5.7 45 6.1 NW 41 50 22 27 1011.7 1010.2 0.0

Other Formats:

Comma delimited format used in spreadsheet applications
http://www.bom.gov.au/fwo/IDN60801/IDN60801.95747.axf

JavaScript Object Notation format (JSON) in row-major order
http://www.bom.gov.au/fwo/IDN60801/IDN60801.95747.json